St Pierre — FIDX — position and weather

sailwx.info

Track history (hours):
 
Tides and Currents Weather Stations Pressure Air Temp Water Temp Dewpoint Dewpoint Depression Visibility Wind Speed Wind Dir Waves Ship Positions

St Pierre

Last reported at 2014-Aug-01 19:29 UTC. Time now 2014-Aug-02 00:32 UTC.
Position N 47°18' W 002°07'.

Length 84 m; draft 6.2 m.

Type: Cargo ship. MMSI: 228024800.

Date/timePositionNaut miles runAvg speedWind from/ knotsBaromVisibWave heightAir tempDewpointWater temp
2014-Aug-01 19:29N 47°18' W 002°07'0 0.0
2014-Jul-31 02:26N 47°18' W 002°08'0 0.0
2014-Jul-30 21:33N 47°18' W 002°08'0 0.0
2014-Jul-30 06:16N 47°18' W 002°08'0 0.0
2014-Jul-30 00:31N 47°18' W 002°08'0 0.0
2014-Jul-29 23:20N 47°18' W 002°08'0 0.0
2014-Jul-29 06:12N 47°18' W 002°08'0 0.0
2014-Jul-29 05:33N 47°18' W 002°08'0 0.0
2014-Jul-29 04:33N 47°18' W 002°08'0 0.0
2014-Jul-29 03:33N 47°18' W 002°08'0 0.0
2014-Jul-29 02:31N 47°18' W 002°08'0 0.0
2014-Jul-28 06:24N 47°18' W 002°08'0 0.0
2014-Jul-27 19:34N 47°18' W 002°08'0 0.0
2014-Jul-27 18:32N 47°18' W 002°08'0 0.0
2014-Jul-27 17:33N 47°18' W 002°08'0 0.0
2014-Jul-27 16:33N 47°18' W 002°08'0 0.0
2014-Jul-27 08:28N 47°18' W 002°08'2110.5
2014-Jul-27 06:26N 47°12' W 001°38'0 0.0
2014-Jul-27 05:05N 47°12' W 001°38'0 0.0
2014-Jul-27 04:33N 47°12' W 001°38'0 0.0
2014-Jul-27 03:33N 47°12' W 001°38'13 0.6
2014-Jul-26 06:33N 47°17' W 001°56'1211.9
2014-Jul-26 05:33N 47°12' W 001°40'26 1.2
2014-Jul-25 08:14N 47°11' W 002°18'1014.8
2014-Jul-25 07:33N 47°18' W 002°08'0 0.4
2014-Jul-25 06:33N 47°18' W 002°07'9 9.5
2014-Jul-25 05:33N 47°17' W 001°53'1111.2
2014-Jul-25 04:33N 47°11' W 001°39'1 0.6
2014-Jul-25 03:33N 47°12' W 001°38'0 0.0
2014-Jul-25 02:33N 47°12' W 001°38'0 0.0
2014-Jul-25 01:33N 47°12' W 001°38'0 0.0
2014-Jul-25 00:33N 47°12' W 001°38'0 0.0
2014-Jul-24 23:29N 47°12' W 001°38'0 0.0
2014-Jul-24 22:33N 47°12' W 001°38'0 0.0
2014-Jul-24 20:25N 47°12' W 001°38'0 0.0
2014-Jul-24 19:33N 47°12' W 001°38'30 2.5
2014-Jul-24 07:32N 47°05' W 002°21'6 6.1
2014-Jul-24 06:33N 47°11' W 002°18'2 2.0
2014-Jul-24 05:33N 47°13' W 002°17'0 0.0
2014-Jul-24 04:33N 47°13' W 002°17'0 0.0
2014-Jul-24 03:33N 47°13' W 002°17'0 0.0
2014-Jul-24 02:33N 47°13' W 002°17'0 0.0
2014-Jul-24 01:20N 47°13' W 002°17'0 0.0
2014-Jul-24 00:33N 47°13' W 002°17'0 0.0
2014-Jul-23 23:30N 47°13' W 002°17'0 0.0
2014-Jul-23 22:31N 47°13' W 002°17'0 0.0
2014-Jul-22 23:33N 47°13' W 002°17'  
Track history (hours):
 
Tides and Currents Weather Stations Pressure Air Temp Water Temp Dewpoint Dewpoint Depression Visibility Wind Speed Wind Dir Waves Ship Positions

St Pierre

Last reported at 2014-Aug-01 19:29 UTC. Time now 2014-Aug-02 00:32 UTC.
Position N 47°18' W 002°07'.

Length 84 m; draft 6.2 m.

Type: Cargo ship. MMSI: 228024800.

Date/timePositionNaut miles runAvg speedWind from/ knotsBaromVisibWave heightAir tempDewpointWater temp
2014-Aug-01 19:29N 47°18' W 002°07'0 0.0
2014-Jul-31 02:26N 47°18' W 002°08'0 0.0
2014-Jul-30 21:33N 47°18' W 002°08'0 0.0
2014-Jul-30 06:16N 47°18' W 002°08'0 0.0
2014-Jul-30 00:31N 47°18' W 002°08'0 0.0
2014-Jul-29 23:20N 47°18' W 002°08'0 0.0
2014-Jul-29 06:12N 47°18' W 002°08'0 0.0
2014-Jul-29 05:33N 47°18' W 002°08'0 0.0
2014-Jul-29 04:33N 47°18' W 002°08'0 0.0
2014-Jul-29 03:33N 47°18' W 002°08'0 0.0
2014-Jul-29 02:31N 47°18' W 002°08'0 0.0
2014-Jul-28 06:24N 47°18' W 002°08'0 0.0
2014-Jul-27 19:34N 47°18' W 002°08'0 0.0
2014-Jul-27 18:32N 47°18' W 002°08'0 0.0
2014-Jul-27 17:33N 47°18' W 002°08'0 0.0
2014-Jul-27 16:33N 47°18' W 002°08'0 0.0
2014-Jul-27 08:28N 47°18' W 002°08'2110.5
2014-Jul-27 06:26N 47°12' W 001°38'0 0.0
2014-Jul-27 05:05N 47°12' W 001°38'0 0.0
2014-Jul-27 04:33N 47°12' W 001°38'0 0.0
2014-Jul-27 03:33N 47°12' W 001°38'13 0.6
2014-Jul-26 06:33N 47°17' W 001°56'1211.9
2014-Jul-26 05:33N 47°12' W 001°40'26 1.2
2014-Jul-25 08:14N 47°11' W 002°18'1014.8
2014-Jul-25 07:33N 47°18' W 002°08'0 0.4
2014-Jul-25 06:33N 47°18' W 002°07'9 9.5
2014-Jul-25 05:33N 47°17' W 001°53'1111.2
2014-Jul-25 04:33N 47°11' W 001°39'1 0.6
2014-Jul-25 03:33N 47°12' W 001°38'0 0.0
2014-Jul-25 02:33N 47°12' W 001°38'0 0.0
2014-Jul-25 01:33N 47°12' W 001°38'0 0.0
2014-Jul-25 00:33N 47°12' W 001°38'0 0.0
2014-Jul-24 23:29N 47°12' W 001°38'0 0.0
2014-Jul-24 22:33N 47°12' W 001°38'0 0.0
2014-Jul-24 20:25N 47°12' W 001°38'0 0.0
2014-Jul-24 19:33N 47°12' W 001°38'30 2.5
2014-Jul-24 07:32N 47°05' W 002°21'6 6.1
2014-Jul-24 06:33N 47°11' W 002°18'2 2.0
2014-Jul-24 05:33N 47°13' W 002°17'0 0.0
2014-Jul-24 04:33N 47°13' W 002°17'0 0.0
2014-Jul-24 03:33N 47°13' W 002°17'0 0.0
2014-Jul-24 02:33N 47°13' W 002°17'0 0.0
2014-Jul-24 01:20N 47°13' W 002°17'0 0.0
2014-Jul-24 00:33N 47°13' W 002°17'0 0.0
2014-Jul-23 23:30N 47°13' W 002°17'0 0.0
2014-Jul-23 22:31N 47°13' W 002°17'0 0.0
2014-Jul-22 23:33N 47°13' W 002°17'  

Dump ship's entire track history